sensor_id;sensor_type;location;lat;lon;timestamp;P1;durP1;ratioP1;P2;durP2;ratioP2
16063;SDS011;8136;53.172;8.256;2023-05-07T00:01:12;17.77;;;11.90;;
16063;SDS011;8136;53.172;8.256;2023-05-07T00:03:50;18.47;;;12.33;;
16063;SDS011;8136;53.172;8.256;2023-05-07T00:06:21;16.13;;;11.67;;
16063;SDS011;8136;53.172;8.256;2023-05-07T00:08:56;20.83;;;12.17;;
16063;SDS011;8136;53.172;8.256;2023-05-07T00:11:26;17.20;;;11.90;;
16063;SDS011;8136;53.172;8.256;2023-05-07T00:13:55;16.20;;;11.67;;
16063;SDS011;8136;53.172;8.256;2023-05-07T00:16:31;16.80;;;11.60;;
16063;SDS011;8136;53.172;8.256;2023-05-07T00:19:01;16.80;;;12.30;;
16063;SDS011;8136;53.172;8.256;2023-05-07T00:21:29;15.93;;;12.03;;
16063;SDS011;8136;53.172;8.256;2023-05-07T00:23:56;16.33;;;12.00;;
16063;SDS011;8136;53.172;8.256;2023-05-07T00:26:23;12.60;;;11.23;;
16063;SDS011;8136;53.172;8.256;2023-05-07T00:28:49;16.50;;;12.13;;
16063;SDS011;8136;53.172;8.256;2023-05-07T00:31:17;18.63;;;11.50;;
16063;SDS011;8136;53.172;8.256;2023-05-07T00:33:43;15.87;;;12.13;;
16063;SDS011;8136;53.172;8.256;2023-05-07T00:36:11;15.53;;;12.23;;
16063;SDS011;8136;53.172;8.256;2023-05-07T00:38:39;15.97;;;11.93;;
16063;SDS011;8136;53.172;8.256;2023-05-07T00:41:05;15.07;;;12.07;;
16063;SDS011;8136;53.172;8.256;2023-05-07T00:43:32;15.50;;;11.93;;
16063;SDS011;8136;53.172;8.256;2023-05-07T00:46:01;15.07;;;12.33;;
16063;SDS011;8136;53.172;8.256;2023-05-07T00:48:30;15.43;;;11.43;;
16063;SDS011;8136;53.172;8.256;2023-05-07T00:51:04;16.03;;;12.43;;
16063;SDS011;8136;53.172;8.256;2023-05-07T00:53:32;13.77;;;11.37;;
16063;SDS011;8136;53.172;8.256;2023-05-07T00:55:59;15.33;;;11.83;;
16063;SDS011;8136;53.172;8.256;2023-05-07T00:58:27;14.13;;;11.83;;
16063;SDS011;8136;53.172;8.256;2023-05-07T01:00:54;13.57;;;11.47;;
16063;SDS011;8136;53.172;8.256;2023-05-07T01:03:21;15.00;;;11.63;;
16063;SDS011;8136;53.172;8.256;2023-05-07T01:05:48;16.93;;;12.77;;
16063;SDS011;8136;53.172;8.256;2023-05-07T01:08:15;14.97;;;12.03;;
16063;SDS011;8136;53.172;8.256;2023-05-07T01:10:45;14.83;;;11.73;;
16063;SDS011;8136;53.172;8.256;2023-05-07T01:13:13;13.97;;;11.40;;
16063;SDS011;8136;53.172;8.256;2023-05-07T01:15:42;15.30;;;11.90;;
16063;SDS011;8136;53.172;8.256;2023-05-07T01:18:09;17.23;;;12.30;;
16063;SDS011;8136;53.172;8.256;2023-05-07T01:23:59;15.23;;;11.67;;
16063;SDS011;8136;53.172;8.256;2023-05-07T01:26:27;15.43;;;12.60;;
16063;SDS011;8136;53.172;8.256;2023-05-07T01:28:54;15.30;;;11.70;;
16063;SDS011;8136;53.172;8.256;2023-05-07T01:31:20;16.07;;;12.83;;
16063;SDS011;8136;53.172;8.256;2023-05-07T01:33:49;14.67;;;11.53;;
16063;SDS011;8136;53.172;8.256;2023-05-07T01:36:18;14.00;;;12.10;;
16063;SDS011;8136;53.172;8.256;2023-05-07T01:38:47;13.90;;;11.30;;
16063;SDS011;8136;53.172;8.256;2023-05-07T01:41:16;13.37;;;11.70;;
16063;SDS011;8136;53.172;8.256;2023-05-07T01:43:43;12.77;;;11.40;;
16063;SDS011;8136;53.172;8.256;2023-05-07T01:46:10;14.77;;;11.70;;
16063;SDS011;8136;53.172;8.256;2023-05-07T01:48:38;13.97;;;11.37;;
16063;SDS011;8136;53.172;8.256;2023-05-07T01:51:05;13.07;;;11.67;;
16063;SDS011;8136;53.172;8.256;2023-05-07T01:53:35;15.47;;;12.50;;
16063;SDS011;8136;53.172;8.256;2023-05-07T01:56:02;12.50;;;11.17;;
16063;SDS011;8136;53.172;8.256;2023-05-07T01:58:31;13.83;;;12.00;;
16063;SDS011;8136;53.172;8.256;2023-05-07T02:00:58;13.50;;;11.60;;
16063;SDS011;8136;53.172;8.256;2023-05-07T02:03:25;12.67;;;11.37;;
16063;SDS011;8136;53.172;8.256;2023-05-07T02:05:51;14.83;;;11.97;;
16063;SDS011;8136;53.172;8.256;2023-05-07T02:08:18;14.53;;;12.37;;
16063;SDS011;8136;53.172;8.256;2023-05-07T02:10:45;15.53;;;12.50;;
16063;SDS011;8136;53.172;8.256;2023-05-07T02:13:12;13.77;;;12.20;;
16063;SDS011;8136;53.172;8.256;2023-05-07T02:15:40;14.77;;;12.00;;
16063;SDS011;8136;53.172;8.256;2023-05-07T02:18:14;15.10;;;12.30;;
16063;SDS011;8136;53.172;8.256;2023-05-07T02:20:44;17.13;;;12.97;;
16063;SDS011;8136;53.172;8.256;2023-05-07T02:23:10;16.43;;;12.87;;
16063;SDS011;8136;53.172;8.256;2023-05-07T02:25:37;15.40;;;12.90;;
16063;SDS011;8136;53.172;8.256;2023-05-07T02:28:09;17.07;;;12.90;;
16063;SDS011;8136;53.172;8.256;2023-05-07T02:30:36;17.13;;;13.07;;
16063;SDS011;8136;53.172;8.256;2023-05-07T02:33:04;17.43;;;13.67;;
16063;SDS011;8136;53.172;8.256;2023-05-07T02:35:33;16.80;;;12.93;;
16063;SDS011;8136;53.172;8.256;2023-05-07T02:38:00;16.53;;;12.43;;
16063;SDS011;8136;53.172;8.256;2023-05-07T02:40:26;18.43;;;13.47;;
16063;SDS011;8136;53.172;8.256;2023-05-07T02:42:58;18.00;;;12.53;;
16063;SDS011;8136;53.172;8.256;2023-05-07T02:45:26;15.60;;;12.93;;
16063;SDS011;8136;53.172;8.256;2023-05-07T02:47:53;17.03;;;13.00;;
16063;SDS011;8136;53.172;8.256;2023-05-07T02:50:21;15.23;;;13.00;;
16063;SDS011;8136;53.172;8.256;2023-05-07T02:52:48;17.03;;;13.03;;
16063;SDS011;8136;53.172;8.256;2023-05-07T02:55:15;15.87;;;12.03;;
16063;SDS011;8136;53.172;8.256;2023-05-07T02:57:43;15.70;;;12.17;;
16063;SDS011;8136;53.172;8.256;2023-05-07T03:00:10;16.33;;;12.80;;
16063;SDS011;8136;53.172;8.256;2023-05-07T03:02:38;14.47;;;12.20;;
16063;SDS011;8136;53.172;8.256;2023-05-07T03:05:06;16.83;;;13.10;;
16063;SDS011;8136;53.172;8.256;2023-05-07T03:07:34;17.20;;;12.83;;
16063;SDS011;8136;53.172;8.256;2023-05-07T03:10:01;16.73;;;12.87;;
16063;SDS011;8136;53.172;8.256;2023-05-07T03:12:28;15.80;;;12.80;;
16063;SDS011;8136;53.172;8.256;2023-05-07T03:14:54;14.67;;;12.10;;
16063;SDS011;8136;53.172;8.256;2023-05-07T03:17:21;15.70;;;12.13;;
16063;SDS011;8136;53.172;8.256;2023-05-07T03:19:48;15.93;;;11.73;;
16063;SDS011;8136;53.172;8.256;2023-05-07T03:22:19;14.50;;;12.07;;
16063;SDS011;8136;53.172;8.256;2023-05-07T03:24:49;16.50;;;12.13;;
16063;SDS011;8136;53.172;8.256;2023-05-07T03:27:16;16.90;;;12.17;;
16063;SDS011;8136;53.172;8.256;2023-05-07T03:29:45;15.63;;;11.87;;
16063;SDS011;8136;53.172;8.256;2023-05-07T03:32:19;13.60;;;11.30;;
16063;SDS011;8136;53.172;8.256;2023-05-07T03:34:46;14.73;;;12.13;;
16063;SDS011;8136;53.172;8.256;2023-05-07T03:37:13;14.77;;;11.50;;
16063;SDS011;8136;53.172;8.256;2023-05-07T03:39:50;15.20;;;11.37;;
16063;SDS011;8136;53.172;8.256;2023-05-07T03:42:19;16.20;;;11.13;;
16063;SDS011;8136;53.172;8.256;2023-05-07T03:44:46;15.77;;;11.43;;
16063;SDS011;8136;53.172;8.256;2023-05-07T03:47:13;14.07;;;11.57;;
16063;SDS011;8136;53.172;8.256;2023-05-07T03:49:40;13.07;;;11.53;;
16063;SDS011;8136;53.172;8.256;2023-05-07T03:52:07;15.57;;;11.40;;
16063;SDS011;8136;53.172;8.256;2023-05-07T03:54:35;13.80;;;10.63;;
16063;SDS011;8136;53.172;8.256;2023-05-07T03:57:11;13.90;;;11.23;;
16063;SDS011;8136;53.172;8.256;2023-05-07T03:59:40;13.33;;;10.33;;
16063;SDS011;8136;53.172;8.256;2023-05-07T04:05:02;14.43;;;11.13;;
16063;SDS011;8136;53.172;8.256;2023-05-07T04:07:30;16.67;;;11.70;;
16063;SDS011;8136;53.172;8.256;2023-05-07T04:10:18;18.13;;;10.77;;
16063;SDS011;8136;53.172;8.256;2023-05-07T04:12:46;13.27;;;10.63;;
16063;SDS011;8136;53.172;8.256;2023-05-07T04:18:07;16.10;;;10.60;;
16063;SDS011;8136;53.172;8.256;2023-05-07T04:20:34;12.90;;;10.10;;
16063;SDS011;8136;53.172;8.256;2023-05-07T04:23:04;12.50;;;10.30;;
16063;SDS011;8136;53.172;8.256;2023-05-07T04:25:32;13.83;;;10.53;;
16063;SDS011;8136;53.172;8.256;2023-05-07T04:28:06;13.60;;;9.87;;
16063;SDS011;8136;53.172;8.256;2023-05-07T04:30:33;12.93;;;10.00;;
16063;SDS011;8136;53.172;8.256;2023-05-07T04:33:00;11.33;;;10.00;;
16063;SDS011;8136;53.172;8.256;2023-05-07T04:35:26;11.57;;;9.07;;
16063;SDS011;8136;53.172;8.256;2023-05-07T04:37:53;13.60;;;9.73;;
16063;SDS011;8136;53.172;8.256;2023-05-07T04:40:20;12.60;;;9.40;;
16063;SDS011;8136;53.172;8.256;2023-05-07T04:42:47;11.40;;;10.03;;
16063;SDS011;8136;53.172;8.256;2023-05-07T04:45:15;12.33;;;9.80;;
16063;SDS011;8136;53.172;8.256;2023-05-07T04:50:24;14.37;;;10.17;;
16063;SDS011;8136;53.172;8.256;2023-05-07T04:52:51;11.93;;;10.30;;
16063;SDS011;8136;53.172;8.256;2023-05-07T04:55:18;15.17;;;10.17;;
16063;SDS011;8136;53.172;8.256;2023-05-07T04:57:44;12.77;;;10.13;;
16063;SDS011;8136;53.172;8.256;2023-05-07T05:00:17;13.17;;;9.97;;
16063;SDS011;8136;53.172;8.256;2023-05-07T05:02:44;14.10;;;10.00;;
16063;SDS011;8136;53.172;8.256;2023-05-07T05:05:11;13.67;;;9.70;;
16063;SDS011;8136;53.172;8.256;2023-05-07T05:07:38;13.57;;;10.13;;
16063;SDS011;8136;53.172;8.256;2023-05-07T05:10:05;13.63;;;10.87;;
16063;SDS011;8136;53.172;8.256;2023-05-07T05:12:32;14.23;;;10.23;;
16063;SDS011;8136;53.172;8.256;2023-05-07T05:14:59;13.00;;;10.50;;
16063;SDS011;8136;53.172;8.256;2023-05-07T05:17:27;15.50;;;10.67;;
16063;SDS011;8136;53.172;8.256;2023-05-07T05:19:54;16.27;;;10.50;;
16063;SDS011;8136;53.172;8.256;2023-05-07T05:22:21;13.03;;;10.20;;
16063;SDS011;8136;53.172;8.256;2023-05-07T05:24:48;14.43;;;10.00;;
16063;SDS011;8136;53.172;8.256;2023-05-07T05:27:15;15.40;;;10.20;;
16063;SDS011;8136;53.172;8.256;2023-05-07T05:29:42;14.37;;;10.83;;
16063;SDS011;8136;53.172;8.256;2023-05-07T05:32:09;16.10;;;11.07;;
16063;SDS011;8136;53.172;8.256;2023-05-07T05:34:37;14.63;;;11.23;;
16063;SDS011;8136;53.172;8.256;2023-05-07T05:37:03;12.87;;;10.03;;
16063;SDS011;8136;53.172;8.256;2023-05-07T05:39:30;13.77;;;10.80;;
16063;SDS011;8136;53.172;8.256;2023-05-07T05:41:57;15.03;;;10.60;;
16063;SDS011;8136;53.172;8.256;2023-05-07T05:44:24;12.23;;;10.07;;
16063;SDS011;8136;53.172;8.256;2023-05-07T05:46:51;14.10;;;10.70;;
16063;SDS011;8136;53.172;8.256;2023-05-07T05:49:20;13.30;;;10.40;;
16063;SDS011;8136;53.172;8.256;2023-05-07T05:51:55;12.60;;;10.13;;
16063;SDS011;8136;53.172;8.256;2023-05-07T05:54:22;14.57;;;10.63;;
16063;SDS011;8136;53.172;8.256;2023-05-07T05:56:50;12.47;;;10.30;;
16063;SDS011;8136;53.172;8.256;2023-05-07T05:59:18;14.57;;;10.20;;
16063;SDS011;8136;53.172;8.256;2023-05-07T06:01:44;13.77;;;10.27;;
16063;SDS011;8136;53.172;8.256;2023-05-07T06:04:11;13.07;;;9.80;;
16063;SDS011;8136;53.172;8.256;2023-05-07T06:06:40;13.07;;;9.80;;
16063;SDS011;8136;53.172;8.256;2023-05-07T06:09:08;12.67;;;9.57;;
16063;SDS011;8136;53.172;8.256;2023-05-07T06:11:35;12.53;;;9.70;;
16063;SDS011;8136;53.172;8.256;2023-05-07T06:14:01;16.70;;;10.07;;
16063;SDS011;8136;53.172;8.256;2023-05-07T06:16:29;10.90;;;9.03;;
16063;SDS011;8136;53.172;8.256;2023-05-07T06:18:55;14.63;;;10.23;;
16063;SDS011;8136;53.172;8.256;2023-05-07T06:21:22;12.67;;;9.43;;
16063;SDS011;8136;53.172;8.256;2023-05-07T06:23:51;13.37;;;9.70;;
16063;SDS011;8136;53.172;8.256;2023-05-07T06:26:21;12.40;;;9.63;;
16063;SDS011;8136;53.172;8.256;2023-05-07T06:28:48;14.80;;;10.50;;
16063;SDS011;8136;53.172;8.256;2023-05-07T06:31:15;11.80;;;9.83;;
16063;SDS011;8136;53.172;8.256;2023-05-07T06:33:43;12.60;;;10.13;;
16063;SDS011;8136;53.172;8.256;2023-05-07T06:36:11;12.00;;;9.57;;
16063;SDS011;8136;53.172;8.256;2023-05-07T06:38:38;12.47;;;9.40;;
16063;SDS011;8136;53.172;8.256;2023-05-07T06:41:05;12.07;;;9.70;;
16063;SDS011;8136;53.172;8.256;2023-05-07T06:43:34;10.83;;;9.43;;
16063;SDS011;8136;53.172;8.256;2023-05-07T06:46:01;11.10;;;8.80;;
16063;SDS011;8136;53.172;8.256;2023-05-07T06:48:28;10.77;;;8.37;;
16063;SDS011;8136;53.172;8.256;2023-05-07T06:50:55;11.37;;;8.70;;
16063;SDS011;8136;53.172;8.256;2023-05-07T06:53:22;11.27;;;8.37;;
16063;SDS011;8136;53.172;8.256;2023-05-07T06:55:50;10.63;;;8.70;;
16063;SDS011;8136;53.172;8.256;2023-05-07T06:58:18;8.67;;;7.40;;
16063;SDS011;8136;53.172;8.256;2023-05-07T07:01:00;9.93;;;7.80;;
16063;SDS011;8136;53.172;8.256;2023-05-07T07:03:26;12.97;;;8.30;;
16063;SDS011;8136;53.172;8.256;2023-05-07T07:05:53;9.30;;;7.60;;
16063;SDS011;8136;53.172;8.256;2023-05-07T07:08:21;9.13;;;7.63;;
16063;SDS011;8136;53.172;8.256;2023-05-07T07:10:48;8.23;;;7.40;;
16063;SDS011;8136;53.172;8.256;2023-05-07T07:13:15;9.07;;;8.07;;
16063;SDS011;8136;53.172;8.256;2023-05-07T07:15:42;8.20;;;7.23;;
16063;SDS011;8136;53.172;8.256;2023-05-07T07:18:11;9.40;;;7.60;;
16063;SDS011;8136;53.172;8.256;2023-05-07T07:20:39;8.77;;;7.60;;
16063;SDS011;8136;53.172;8.256;2023-05-07T07:23:10;8.27;;;7.33;;
16063;SDS011;8136;53.172;8.256;2023-05-07T07:26:01;8.63;;;7.17;;
16063;SDS011;8136;53.172;8.256;2023-05-07T07:28:27;8.80;;;7.33;;
16063;SDS011;8136;53.172;8.256;2023-05-07T07:30:54;7.30;;;6.60;;
16063;SDS011;8136;53.172;8.256;2023-05-07T07:33:22;7.97;;;6.70;;
16063;SDS011;8136;53.172;8.256;2023-05-07T07:35:49;8.17;;;6.60;;
16063;SDS011;8136;53.172;8.256;2023-05-07T07:38:16;7.33;;;6.63;;
16063;SDS011;8136;53.172;8.256;2023-05-07T07:40:42;7.93;;;6.83;;
16063;SDS011;8136;53.172;8.256;2023-05-07T07:43:11;8.13;;;6.77;;
16063;SDS011;8136;53.172;8.256;2023-05-07T07:45:37;8.90;;;7.23;;
16063;SDS011;8136;53.172;8.256;2023-05-07T07:48:04;7.20;;;6.27;;
16063;SDS011;8136;53.172;8.256;2023-05-07T07:50:32;8.00;;;7.20;;
16063;SDS011;8136;53.172;8.256;2023-05-07T07:53:00;7.30;;;6.60;;
16063;SDS011;8136;53.172;8.256;2023-05-07T07:55:26;7.60;;;6.80;;
16063;SDS011;8136;53.172;8.256;2023-05-07T07:57:53;9.87;;;7.33;;
16063;SDS011;8136;53.172;8.256;2023-05-07T08:00:20;8.00;;;7.20;;
16063;SDS011;8136;53.172;8.256;2023-05-07T08:02:47;8.73;;;7.10;;
16063;SDS011;8136;53.172;8.256;2023-05-07T08:05:13;7.53;;;6.80;;
16063;SDS011;8136;53.172;8.256;2023-05-07T08:07:42;9.33;;;7.70;;
16063;SDS011;8136;53.172;8.256;2023-05-07T08:10:09;8.00;;;7.20;;
16063;SDS011;8136;53.172;8.256;2023-05-07T08:12:35;8.17;;;7.37;;
16063;SDS011;8136;53.172;8.256;2023-05-07T08:15:02;7.60;;;6.80;;
16063;SDS011;8136;53.172;8.256;2023-05-07T08:17:30;8.20;;;7.07;;
16063;SDS011;8136;53.172;8.256;2023-05-07T08:19:56;8.50;;;7.53;;
16063;SDS011;8136;53.172;8.256;2023-05-07T08:22:23;7.70;;;6.57;;
16063;SDS011;8136;53.172;8.256;2023-05-07T08:24:51;7.60;;;6.83;;
16063;SDS011;8136;53.172;8.256;2023-05-07T08:27:18;9.47;;;6.93;;
16063;SDS011;8136;53.172;8.256;2023-05-07T08:29:47;7.80;;;7.00;;
16063;SDS011;8136;53.172;8.256;2023-05-07T08:32:37;8.63;;;7.43;;
16063;SDS011;8136;53.172;8.256;2023-05-07T08:35:04;8.20;;;7.03;;
16063;SDS011;8136;53.172;8.256;2023-05-07T08:37:32;9.07;;;7.83;;
16063;SDS011;8136;53.172;8.256;2023-05-07T08:40:00;7.77;;;6.83;;
16063;SDS011;8136;53.172;8.256;2023-05-07T08:42:27;9.10;;;8.03;;
16063;SDS011;8136;53.172;8.256;2023-05-07T08:44:55;7.53;;;6.73;;
16063;SDS011;8136;53.172;8.256;2023-05-07T08:47:27;9.13;;;7.90;;
16063;SDS011;8136;53.172;8.256;2023-05-07T08:49:59;9.37;;;8.10;;
16063;SDS011;8136;53.172;8.256;2023-05-07T08:52:27;9.07;;;8.17;;
16063;SDS011;8136;53.172;8.256;2023-05-07T08:54:54;9.10;;;8.17;;
16063;SDS011;8136;53.172;8.256;2023-05-07T08:57:22;8.80;;;7.90;;
16063;SDS011;8136;53.172;8.256;2023-05-07T08:59:49;10.17;;;8.00;;
16063;SDS011;8136;53.172;8.256;2023-05-07T09:02:16;8.93;;;7.87;;
16063;SDS011;8136;53.172;8.256;2023-05-07T09:04:43;9.00;;;8.10;;
16063;SDS011;8136;53.172;8.256;2023-05-07T09:07:09;8.93;;;8.03;;
16063;SDS011;8136;53.172;8.256;2023-05-07T09:09:36;8.97;;;8.03;;
16063;SDS011;8136;53.172;8.256;2023-05-07T09:12:03;8.17;;;7.37;;
16063;SDS011;8136;53.172;8.256;2023-05-07T09:14:32;9.93;;;7.87;;
16063;SDS011;8136;53.172;8.256;2023-05-07T09:16:59;9.07;;;7.57;;
16063;SDS011;8136;53.172;8.256;2023-05-07T09:19:26;7.97;;;7.17;;
16063;SDS011;8136;53.172;8.256;2023-05-07T09:21:59;7.60;;;6.83;;
16063;SDS011;8136;53.172;8.256;2023-05-07T09:49:19;7.67;;;6.87;;
16063;SDS011;8136;53.172;8.256;2023-05-07T09:51:49;7.27;;;6.43;;
16063;SDS011;8136;53.172;8.256;2023-05-07T09:54:17;6.67;;;5.97;;
16063;SDS011;8136;53.172;8.256;2023-05-07T09:56:44;6.10;;;5.50;;
16063;SDS011;8136;53.172;8.256;2023-05-07T09:59:20;6.90;;;6.20;;
16063;SDS011;8136;53.172;8.256;2023-05-07T10:01:48;6.70;;;6.00;;
16063;SDS011;8136;53.172;8.256;2023-05-07T10:04:18;6.23;;;5.63;;
16063;SDS011;8136;53.172;8.256;2023-05-07T10:06:46;6.10;;;5.60;;
16063;SDS011;8136;53.172;8.256;2023-05-07T10:09:14;7.20;;;6.17;;
16063;SDS011;8136;53.172;8.256;2023-05-07T10:11:41;6.93;;;6.23;;
16063;SDS011;8136;53.172;8.256;2023-05-07T10:14:09;6.97;;;6.33;;
16063;SDS011;8136;53.172;8.256;2023-05-07T10:16:36;6.77;;;6.07;;
16063;SDS011;8136;53.172;8.256;2023-05-07T10:19:03;7.33;;;6.30;;
16063;SDS011;8136;53.172;8.256;2023-05-07T10:21:32;6.83;;;6.10;;
16063;SDS011;8136;53.172;8.256;2023-05-07T10:24:05;8.20;;;6.73;;
16063;SDS011;8136;53.172;8.256;2023-05-07T10:26:38;7.53;;;6.30;;
16063;SDS011;8136;53.172;8.256;2023-05-07T10:29:14;7.50;;;6.80;;
16063;SDS011;8136;53.172;8.256;2023-05-07T10:31:48;6.80;;;6.20;;
16063;SDS011;8136;53.172;8.256;2023-05-07T10:34:26;6.67;;;5.97;;
16063;SDS011;8136;53.172;8.256;2023-05-07T10:37:00;8.20;;;7.00;;
16063;SDS011;8136;53.172;8.256;2023-05-07T10:39:32;7.30;;;6.60;;
16063;SDS011;8136;53.172;8.256;2023-05-07T10:42:07;6.60;;;6.00;;
16063;SDS011;8136;53.172;8.256;2023-05-07T10:44:36;7.70;;;6.47;;
16063;SDS011;8136;53.172;8.256;2023-05-07T10:47:06;7.63;;;6.93;;
16063;SDS011;8136;53.172;8.256;2023-05-07T10:49:34;7.03;;;6.10;;
16063;SDS011;8136;53.172;8.256;2023-05-07T10:52:22;9.27;;;6.67;;
16063;SDS011;8136;53.172;8.256;2023-05-07T10:55:18;7.13;;;6.43;;
16063;SDS011;8136;53.172;8.256;2023-05-07T10:57:50;7.30;;;6.60;;
16063;SDS011;8136;53.172;8.256;2023-05-07T11:03:12;7.50;;;6.80;;
16063;SDS011;8136;53.172;8.256;2023-05-07T11:05:42;7.70;;;6.90;;
16063;SDS011;8136;53.172;8.256;2023-05-07T11:08:16;7.67;;;6.90;;
16063;SDS011;8136;53.172;8.256;2023-05-07T11:10:53;7.60;;;6.83;;
16063;SDS011;8136;53.172;8.256;2023-05-07T11:16:24;7.33;;;6.63;;
16063;SDS011;8136;53.172;8.256;2023-05-07T11:18:53;7.77;;;6.97;;
16063;SDS011;8136;53.172;8.256;2023-05-07T11:21:34;9.13;;;7.20;;
16063;SDS011;8136;53.172;8.256;2023-05-07T11:24:03;8.27;;;7.47;;
16063;SDS011;8136;53.172;8.256;2023-05-07T11:29:20;8.67;;;7.80;;
16063;SDS011;8136;53.172;8.256;2023-05-07T11:31:48;9.17;;;7.57;;
16063;SDS011;8136;53.172;8.256;2023-05-07T11:34:19;8.13;;;7.23;;
16063;SDS011;8136;53.172;8.256;2023-05-07T11:36:47;8.20;;;7.40;;
16063;SDS011;8136;53.172;8.256;2023-05-07T11:39:39;7.83;;;7.03;;
16063;SDS011;8136;53.172;8.256;2023-05-07T11:49:39;8.43;;;7.30;;
16063;SDS011;8136;53.172;8.256;2023-05-07T11:52:06;7.80;;;7.10;;
16063;SDS011;8136;53.172;8.256;2023-05-07T11:54:36;7.57;;;6.87;;
16063;SDS011;8136;53.172;8.256;2023-05-07T11:57:04;8.90;;;7.17;;
16063;SDS011;8136;53.172;8.256;2023-05-07T11:59:37;7.73;;;6.60;;
16063;SDS011;8136;53.172;8.256;2023-05-07T12:02:05;7.67;;;6.63;;
16063;SDS011;8136;53.172;8.256;2023-05-07T12:04:35;8.03;;;7.23;;
16063;SDS011;8136;53.172;8.256;2023-05-07T12:07:05;7.53;;;6.17;;
16063;SDS011;8136;53.172;8.256;2023-05-07T12:09:38;7.87;;;7.07;;
16063;SDS011;8136;53.172;8.256;2023-05-07T12:12:05;9.60;;;7.03;;
16063;SDS011;8136;53.172;8.256;2023-05-07T12:14:32;8.13;;;7.17;;
16063;SDS011;8136;53.172;8.256;2023-05-07T12:17:03;9.57;;;7.17;;
16063;SDS011;8136;53.172;8.256;2023-05-07T12:19:30;7.83;;;7.03;;
16063;SDS011;8136;53.172;8.256;2023-05-07T12:21:57;8.00;;;6.60;;
16063;SDS011;8136;53.172;8.256;2023-05-07T12:24:24;7.50;;;6.77;;
16063;SDS011;8136;53.172;8.256;2023-05-07T12:26:55;7.93;;;7.00;;
16063;SDS011;8136;53.172;8.256;2023-05-07T12:29:22;8.17;;;7.40;;
16063;SDS011;8136;53.172;8.256;2023-05-07T12:31:49;8.10;;;7.30;;
16063;SDS011;8136;53.172;8.256;2023-05-07T12:34:16;7.90;;;6.93;;
16063;SDS011;8136;53.172;8.256;2023-05-07T12:36:43;7.60;;;6.90;;
16063;SDS011;8136;53.172;8.256;2023-05-07T12:39:10;7.83;;;7.03;;
16063;SDS011;8136;53.172;8.256;2023-05-07T12:41:51;7.27;;;6.57;;
16063;SDS011;8136;53.172;8.256;2023-05-07T12:44:20;7.60;;;6.77;;
16063;SDS011;8136;53.172;8.256;2023-05-07T12:46:48;7.53;;;6.83;;
16063;SDS011;8136;53.172;8.256;2023-05-07T12:49:15;8.53;;;7.27;;
16063;SDS011;8136;53.172;8.256;2023-05-07T12:51:43;8.77;;;7.87;;
16063;SDS011;8136;53.172;8.256;2023-05-07T12:54:09;8.43;;;7.63;;
16063;SDS011;8136;53.172;8.256;2023-05-07T12:56:36;7.73;;;7.03;;
16063;SDS011;8136;53.172;8.256;2023-05-07T12:59:03;8.50;;;7.27;;
16063;SDS011;8136;53.172;8.256;2023-05-07T13:01:33;8.17;;;7.37;;
16063;SDS011;8136;53.172;8.256;2023-05-07T13:04:00;7.83;;;7.07;;
16063;SDS011;8136;53.172;8.256;2023-05-07T13:06:29;7.90;;;7.10;;
16063;SDS011;8136;53.172;8.256;2023-05-07T13:08:56;7.93;;;6.80;;
16063;SDS011;8136;53.172;8.256;2023-05-07T13:11:23;6.83;;;6.23;;
16063;SDS011;8136;53.172;8.256;2023-05-07T13:13:50;6.83;;;6.07;;
16063;SDS011;8136;53.172;8.256;2023-05-07T13:16:16;7.20;;;6.50;;
16063;SDS011;8136;53.172;8.256;2023-05-07T13:18:44;7.27;;;6.57;;
16063;SDS011;8136;53.172;8.256;2023-05-07T13:21:11;7.00;;;6.30;;
16063;SDS011;8136;53.172;8.256;2023-05-07T13:23:39;7.53;;;6.47;;
16063;SDS011;8136;53.172;8.256;2023-05-07T13:26:06;7.10;;;6.40;;
16063;SDS011;8136;53.172;8.256;2023-05-07T13:28:33;7.37;;;5.93;;
16063;SDS011;8136;53.172;8.256;2023-05-07T13:31:00;7.33;;;5.97;;
16063;SDS011;8136;53.172;8.256;2023-05-07T13:33:27;5.73;;;5.23;;
16063;SDS011;8136;53.172;8.256;2023-05-07T13:35:56;7.07;;;5.87;;
16063;SDS011;8136;53.172;8.256;2023-05-07T13:38:26;8.23;;;6.07;;
16063;SDS011;8136;53.172;8.256;2023-05-07T13:40:59;6.20;;;5.67;;
16063;SDS011;8136;53.172;8.256;2023-05-07T13:43:25;5.53;;;5.03;;
16063;SDS011;8136;53.172;8.256;2023-05-07T13:45:52;5.77;;;4.90;;
16063;SDS011;8136;53.172;8.256;2023-05-07T13:48:19;6.47;;;5.30;;
16063;SDS011;8136;53.172;8.256;2023-05-07T13:50:46;7.20;;;5.47;;
16063;SDS011;8136;53.172;8.256;2023-05-07T13:53:14;5.70;;;4.70;;
16063;SDS011;8136;53.172;8.256;2023-05-07T13:55:43;6.17;;;5.10;;
16063;SDS011;8136;53.172;8.256;2023-05-07T13:58:09;5.93;;;4.83;;
16063;SDS011;8136;53.172;8.256;2023-05-07T14:00:37;5.50;;;4.97;;
16063;SDS011;8136;53.172;8.256;2023-05-07T14:03:04;5.83;;;5.20;;
16063;SDS011;8136;53.172;8.256;2023-05-07T14:05:31;6.20;;;5.23;;
16063;SDS011;8136;53.172;8.256;2023-05-07T14:07:59;6.20;;;5.03;;
16063;SDS011;8136;53.172;8.256;2023-05-07T14:10:27;4.97;;;4.50;;
16063;SDS011;8136;53.172;8.256;2023-05-07T14:12:55;5.57;;;5.07;;
16063;SDS011;8136;53.172;8.256;2023-05-07T14:15:22;5.70;;;4.27;;
16063;SDS011;8136;53.172;8.256;2023-05-07T14:17:49;5.67;;;5.17;;
16063;SDS011;8136;53.172;8.256;2023-05-07T14:20:15;4.90;;;4.47;;
16063;SDS011;8136;53.172;8.256;2023-05-07T14:22:43;5.60;;;4.87;;
16063;SDS011;8136;53.172;8.256;2023-05-07T14:25:10;6.13;;;3.93;;
16063;SDS011;8136;53.172;8.256;2023-05-07T14:27:39;4.83;;;4.37;;
16063;SDS011;8136;53.172;8.256;2023-05-07T14:30:07;4.50;;;4.07;;
16063;SDS011;8136;53.172;8.256;2023-05-07T14:32:34;4.83;;;3.90;;
16063;SDS011;8136;53.172;8.256;2023-05-07T15:06:26;4.17;;;3.53;;
16063;SDS011;8136;53.172;8.256;2023-05-07T15:08:54;4.30;;;3.90;;
16063;SDS011;8136;53.172;8.256;2023-05-07T15:11:21;4.10;;;3.47;;
16063;SDS011;8136;53.172;8.256;2023-05-07T15:13:47;3.93;;;3.23;;
16063;SDS011;8136;53.172;8.256;2023-05-07T15:16:15;3.70;;;3.37;;
16063;SDS011;8136;53.172;8.256;2023-05-07T15:18:42;4.70;;;3.60;;
16063;SDS011;8136;53.172;8.256;2023-05-07T15:21:09;3.17;;;2.87;;
16063;SDS011;8136;53.172;8.256;2023-05-07T15:23:37;3.80;;;3.50;;
16063;SDS011;8136;53.172;8.256;2023-05-07T15:26:06;3.30;;;3.00;;
16063;SDS011;8136;53.172;8.256;2023-05-07T15:28:33;3.73;;;3.40;;
16063;SDS011;8136;53.172;8.256;2023-05-07T15:31:04;3.70;;;3.30;;
16063;SDS011;8136;53.172;8.256;2023-05-07T15:33:31;4.13;;;3.33;;
16063;SDS011;8136;53.172;8.256;2023-05-07T15:35:58;3.80;;;3.50;;
16063;SDS011;8136;53.172;8.256;2023-05-07T15:38:25;3.73;;;3.43;;
16063;SDS011;8136;53.172;8.256;2023-05-07T15:40:54;3.50;;;3.13;;
16063;SDS011;8136;53.172;8.256;2023-05-07T15:43:21;3.97;;;3.67;;
16063;SDS011;8136;53.172;8.256;2023-05-07T15:45:47;3.73;;;3.10;;
16063;SDS011;8136;53.172;8.256;2023-05-07T15:48:14;4.17;;;3.77;;
16063;SDS011;8136;53.172;8.256;2023-05-07T15:50:41;3.90;;;3.60;;
16063;SDS011;8136;53.172;8.256;2023-05-07T15:53:08;4.30;;;3.93;;
16063;SDS011;8136;53.172;8.256;2023-05-07T15:55:37;5.03;;;3.93;;
16063;SDS011;8136;53.172;8.256;2023-05-07T15:58:08;4.40;;;4.00;;
16063;SDS011;8136;53.172;8.256;2023-05-07T16:00:35;4.23;;;3.83;;
16063;SDS011;8136;53.172;8.256;2023-05-07T16:03:04;4.50;;;3.63;;
16063;SDS011;8136;53.172;8.256;2023-05-07T16:05:32;5.00;;;4.07;;
16063;SDS011;8136;53.172;8.256;2023-05-07T16:07:58;4.97;;;4.57;;
16063;SDS011;8136;53.172;8.256;2023-05-07T16:10:25;5.60;;;4.33;;
16063;SDS011;8136;53.172;8.256;2023-05-07T16:12:52;4.83;;;4.40;;
16063;SDS011;8136;53.172;8.256;2023-05-07T16:15:20;5.50;;;5.00;;
16063;SDS011;8136;53.172;8.256;2023-05-07T16:17:47;5.73;;;5.20;;
16063;SDS011;8136;53.172;8.256;2023-05-07T16:20:15;5.93;;;4.83;;
16063;SDS011;8136;53.172;8.256;2023-05-07T16:22:44;4.63;;;4.23;;